Time;durP1;ratioP1;P1;durP2;ratioP2;P2;SDS_P1;SDS_P2;PMS_P1;PMS_P2;Temp;Humidity;BMP_temperature;BMP_pressure;BME280_temperature;BME280_humidity;BME280_pressure;Samples;Min_cycle;Max_cycle;Signal;HPM_P1;HPM_P2
2022/10/17 00:02:12;;;;;;;4.05;2.58;;;;;;;13.70;91.35;96112.31;6153279;23;20237;-84
2022/10/17 00:04:38;;;;;;;4.47;2.22;;;;;;;13.70;91.36;96113.16;6127281;23;20163;-83
2022/10/17 00:07:03;;;;;;;3.35;2.35;;;;;;;13.65;91.73;96111.94;6152423;23;20167;-83
2022/10/17 00:09:28;;;;;;;3.80;2.50;;;;;;;13.65;92.23;96118.00;6127911;23;20533;-83
2022/10/17 00:11:54;;;;;;;3.40;2.50;;;;;;;13.64;92.02;96121.56;6128383;23;20159;-83
2022/10/17 00:14:19;;;;;;;3.78;2.30;;;;;;;13.66;92.45;96124.84;6152327;23;20199;-82
2022/10/17 00:16:44;;;;;;;4.32;3.05;;;;;;;13.61;92.33;96124.50;6126276;23;20159;-83
2022/10/17 00:19:09;;;;;;;7.38;3.17;;;;;;;13.57;92.82;96121.34;6152476;23;20241;-83
2022/10/17 00:21:35;;;;;;;7.10;2.20;;;;;;;13.55;92.76;96122.47;6127574;23;20160;-83
2022/10/17 00:24:00;;;;;;;3.25;2.28;;;;;;;13.54;93.01;96132.09;6127464;23;20606;-83
2022/10/17 00:26:28;;;;;;;4.10;2.60;;;;;;;13.46;92.94;96131.22;6127044;23;20155;-83
2022/10/17 00:28:53;;;;;;;3.33;2.60;;;;;;;13.44;93.40;96141.81;6128039;23;20225;-84
2022/10/17 00:31:20;;;;;;;2.80;2.30;;;;;;;13.37;93.76;96140.78;6127673;23;20222;-84
2022/10/17 00:33:46;;;;;;;2.70;2.20;;;;;;;13.32;94.04;96146.41;6128084;23;20183;-83
2022/10/17 00:36:17;;;;;;;4.47;2.60;;;;;;;13.27;94.46;96146.06;6125333;23;20186;-83
2022/10/17 00:38:45;;;;;;;5.63;2.58;;;;;;;13.24;94.27;96146.34;6127587;23;20183;-83
2022/10/17 00:41:13;;;;;;;5.93;2.40;;;;;;;13.21;94.15;96144.03;6152574;23;20589;-84
2022/10/17 00:43:55;;;;;;;2.60;2.40;;;;;;;13.22;94.53;96144.88;6152466;23;20225;-84
2022/10/17 00:46:22;;;;;;;5.43;2.60;;;;;;;13.18;94.51;96143.50;6126936;23;20553;-83
2022/10/17 00:48:48;;;;;;;3.83;2.60;;;;;;;13.23;94.75;96147.31;6151956;23;20178;-83
2022/10/17 00:51:14;;;;;;;3.63;2.37;;;;;;;13.23;94.14;96136.88;6152845;23;20506;-84
2022/10/17 00:53:39;;;;;;;5.87;2.80;;;;;;;13.22;94.38;96140.47;6152343;23;20171;-83
2022/10/17 00:56:05;;;;;;;4.57;2.60;;;;;;;13.19;94.37;96138.16;6126635;23;20549;-83
2022/10/17 00:58:30;;;;;;;3.33;2.70;;;;;;;13.14;94.74;96134.31;6151853;23;20182;-84
2022/10/17 01:00:56;;;;;;;3.43;2.40;;;;;;;13.09;94.45;96142.59;6152105;23;20162;-85
2022/10/17 01:03:21;;;;;;;5.97;2.40;;;;;;;13.15;94.70;96144.59;6127283;23;20174;-83
2022/10/17 01:05:46;;;;;;;3.33;2.70;;;;;;;13.14;94.91;96148.19;6126959;23;20159;-84
2022/10/17 01:08:12;;;;;;;7.67;2.67;;;;;;;13.16;94.80;96150.63;6152158;23;20167;-84
2022/10/17 01:10:46;;;;;;;2.80;2.40;;;;;;;13.21;94.65;96149.25;6127193;23;20194;-83
2022/10/17 01:13:38;;;;;;;3.00;2.50;;;;;;;13.22;94.73;96148.28;6151836;23;20179;-84
2022/10/17 01:16:06;;;;;;;4.07;2.50;;;;;;;13.20;94.59;96152.03;6111115;23;20168;-84
2022/10/17 01:18:51;;;;;;;4.17;2.80;;;;;;;13.18;95.00;96149.53;6153575;23;20270;-83
2022/10/17 01:21:43;;;;;;;4.97;2.80;;;;;;;13.20;94.84;96152.84;6153518;23;20501;-84
2022/10/17 01:24:26;;;;;;;4.53;3.00;;;;;;;13.23;95.00;96155.13;6151904;23;20144;-84
2022/10/17 01:27:25;;;;;;;4.30;2.57;;;;;;;13.30;94.53;96148.38;6151725;23;20566;-83
2022/10/17 01:30:09;;;;;;;3.27;2.60;;;;;;;13.29;94.73;96148.53;6127489;23;20674;-83
2022/10/17 01:33:45;;;;;;;4.03;2.93;;;;;;;13.28;94.51;96154.72;5133602;27;20921;-83
2022/10/17 01:36:17;;;;;;;2.93;2.67;;;;;;;13.30;94.37;96148.38;5122112;28;20214;-85
2022/10/17 01:38:48;;;;;;;5.17;2.57;;;;;;;13.44;92.92;96156.66;5107605;28;20575;-82
2022/10/17 01:41:40;;;;;;;5.37;2.60;;;;;;;13.43;93.23;96147.16;5098863;28;20650;-82
2022/10/17 01:44:11;;;;;;;3.10;2.80;;;;;;;13.48;92.68;96142.31;5115962;27;20215;-82
2022/10/17 01:46:38;;;;;;;5.73;2.83;;;;;;;13.54;92.42;96150.38;5116588;28;20179;-82
2022/10/17 01:49:05;;;;;;;3.90;2.73;;;;;;;13.54;92.23;96144.34;5126159;28;20195;-82
2022/10/17 01:51:37;;;;;;;3.07;2.33;;;;;;;13.53;92.30;96147.91;5129946;27;20211;-83
2022/10/17 01:54:08;;;;;;;5.43;2.70;;;;;;;13.49;92.46;96136.13;5110007;28;20187;-83
2022/10/17 01:56:34;;;;;;;5.20;2.90;;;;;;;13.44;92.58;96141.00;5120287;28;20946;-83
2022/10/17 01:59:04;;;;;;;3.87;3.10;;;;;;;13.38;92.33;96138.97;5120724;28;20203;-84
2022/10/17 02:01:29;;;;;;;4.13;2.77;;;;;;;13.32;92.79;96140.38;5121994;28;20829;-83
2022/10/17 02:03:56;;;;;;;5.20;2.70;;;;;;;13.29;93.04;96136.28;5101121;28;20240;-83
2022/10/17 02:06:21;;;;;;;5.00;2.87;;;;;;;13.37;93.02;96126.91;5120327;28;20560;-83
2022/10/17 02:08:48;;;;;;;3.87;2.70;;;;;;;13.28;92.91;96129.44;5102342;28;20219;-83
2022/10/17 02:11:17;;;;;;;3.60;2.80;;;;;;;13.23;93.89;96131.66;5123130;28;20183;-83
2022/10/17 02:14:14;;;;;;;4.43;2.73;;;;;;;13.28;93.41;96134.66;5118618;28;20179;-83
2022/10/17 02:17:07;;;;;;;4.60;2.90;;;;;;;13.27;93.11;96135.63;5124918;28;20230;-83
2022/10/17 02:19:45;;;;;;;3.50;3.20;;;;;;;13.25;93.43;96124.53;5100514;28;20723;-83
2022/10/17 02:22:34;;;;;;;6.87;3.10;;;;;;;13.27;93.45;96125.19;5095279;28;20187;-83
2022/10/17 02:25:26;;;;;;;5.75;3.08;;;;;;;13.36;93.30;96125.28;5113406;28;20252;-83
2022/10/17 02:27:58;;;;;;;5.03;3.10;;;;;;;13.39;93.34;96119.75;5116854;28;20183;-83
2022/10/17 02:30:43;;;;;;;3.17;2.87;;;;;;;13.45;93.12;96122.56;5126116;27;20192;-83
2022/10/17 02:33:26;;;;;;;3.75;2.90;;;;;;;13.47;92.93;96127.63;5112395;28;20294;-82
2022/10/17 02:35:53;;;;;;;3.20;2.90;;;;;;;13.49;92.86;96126.50;5106977;28;20196;-82
2022/10/17 02:38:20;;;;;;;4.60;3.00;;;;;;;13.50;92.30;96129.94;5102575;28;20208;-83
2022/10/17 02:40:48;;;;;;;4.20;2.78;;;;;;;13.47;92.85;96131.06;5098084;28;20187;-83
2022/10/17 02:43:13;;;;;;;4.37;3.00;;;;;;;13.44;92.85;96123.56;5094542;28;20177;-83
2022/10/17 02:45:39;;;;;;;3.90;3.10;;;;;;;13.38;92.92;96129.38;5080918;28;20199;-83
2022/10/17 02:48:08;;;;;;;3.40;3.10;;;;;;;13.34;92.97;96135.88;5100731;28;20194;-83
2022/10/17 02:51:04;;;;;;;7.67;3.03;;;;;;;13.32;93.30;96133.38;5094715;28;20192;-82
2022/10/17 02:54:22;;;;;;;6.80;3.47;;;;;;;13.25;93.54;96132.38;5108545;28;20538;-83
2022/10/17 02:56:52;;;;;;;3.88;3.42;;;;;;;13.34;93.66;96133.25;5082830;28;20203;-83
2022/10/17 02:59:19;;;;;;;3.83;3.00;;;;;;;13.41;93.66;96138.66;5083953;28;20227;-83
2022/10/17 03:01:45;;;;;;;4.37;3.47;;;;;;;13.42;93.23;96137.69;5100481;28;20190;-83
2022/10/17 03:04:12;;;;;;;3.83;3.05;;;;;;;13.41;93.19;96136.06;5102003;28;20247;-83
2022/10/17 03:06:38;;;;;;;4.77;3.33;;;;;;;13.40;93.14;96140.47;5090658;28;20665;-83
2022/10/17 03:09:05;;;;;;;3.90;2.83;;;;;;;13.39;93.20;96138.00;5100760;28;20298;-83
2022/10/17 03:11:30;;;;;;;3.53;2.80;;;;;;;13.47;93.36;96144.09;5097836;28;20278;-83
2022/10/17 03:13:55;;;;;;;3.83;2.87;;;;;;;13.45;93.06;96126.97;5099123;28;20754;-83
2022/10/17 03:16:21;;;;;;;4.40;3.47;;;;;;;13.48;92.95;96139.72;5105795;28;20236;-83
2022/10/17 03:18:46;;;;;;;2.97;2.67;;;;;;;13.50;92.60;96132.53;5087414;28;20215;-83
2022/10/17 03:21:11;;;;;;;4.37;3.30;;;;;;;13.50;92.56;96140.38;5085755;28;20722;-82
2022/10/17 03:23:37;;;;;;;3.57;2.70;;;;;;;13.59;92.25;96134.25;5078701;28;20195;-82
2022/10/17 03:26:06;;;;;;;4.70;3.40;;;;;;;13.68;91.74;96140.34;5085663;28;20180;-82
2022/10/17 03:28:31;;;;;;;4.13;2.80;;;;;;;13.72;91.32;96137.28;5092343;28;20200;-82
2022/10/17 03:30:58;;;;;;;3.80;2.70;;;;;;;13.72;91.03;96134.69;5099526;28;20193;-83
2022/10/17 03:33:23;;;;;;;3.43;3.10;;;;;;;13.72;90.93;96126.84;5085881;28;20201;-83
2022/10/17 03:35:48;;;;;;;6.50;3.33;;;;;;;13.73;90.67;96133.72;5095024;28;20192;-84
2022/10/17 03:38:13;;;;;;;3.93;3.40;;;;;;;13.78;90.62;96135.84;5097848;28;20208;-84
2022/10/17 03:40:39;;;;;;;3.40;3.10;;;;;;;13.80;90.21;96139.16;5090599;28;20188;-84
2022/10/17 03:43:04;;;;;;;5.53;3.10;;;;;;;13.79;90.16;96133.09;5094416;28;20184;-84
2022/10/17 03:45:29;;;;;;;3.17;2.67;;;;;;;13.81;89.86;96133.75;5099956;28;20188;-85
2022/10/17 03:47:55;;;;;;;4.67;3.00;;;;;;;13.83;89.63;96142.25;5102557;28;20199;-84
2022/10/17 03:50:20;;;;;;;3.67;2.80;;;;;;;13.85;89.35;96135.06;5096668;28;20196;-84
2022/10/17 03:52:47;;;;;;;3.25;2.95;;;;;;;13.78;89.39;96141.91;5096747;28;20246;-85
2022/10/17 03:55:12;;;;;;;4.00;3.10;;;;;;;13.72;89.67;96142.50;5095874;28;20195;-84
2022/10/17 03:57:38;;;;;;;4.07;2.93;;;;;;;13.64;90.22;96150.28;5085191;28;20175;-84
2022/10/17 04:00:04;;;;;;;3.60;3.00;;;;;;;13.68;89.78;96154.22;5095463;28;20200;-83
2022/10/17 04:02:29;;;;;;;6.27;3.07;;;;;;;13.66;89.74;96161.38;5101164;28;20200;-84
2022/10/17 04:04:54;;;;;;;4.73;2.80;;;;;;;13.58;89.88;96167.34;5110602;28;20560;-85
2022/10/17 04:07:19;;;;;;;6.85;3.38;;;;;;;13.40;91.38;96169.16;5106517;28;20192;-84
2022/10/17 04:09:45;;;;;;;3.27;2.83;;;;;;;13.38;91.53;96167.66;5101932;28;20210;-84
2022/10/17 04:12:10;;;;;;;8.43;3.00;;;;;;;13.24;91.72;96172.44;5084477;28;20201;-84
2022/10/17 04:14:36;;;;;;;5.53;3.50;;;;;;;13.23;92.43;96167.38;5078379;28;20204;-84
2022/10/17 04:17:01;;;;;;;3.13;2.93;;;;;;;13.18;92.48;96172.19;5078470;28;20201;-84
2022/10/17 04:19:27;;;;;;;3.90;3.30;;;;;;;13.18;92.60;96175.63;5086918;28;20215;-84
2022/10/17 04:21:52;;;;;;;8.73;3.43;;;;;;;13.20;92.54;96175.50;5085873;28;20661;-84
2022/10/17 04:24:17;;;;;;;2.80;2.60;;;;;;;13.24;92.44;96180.25;5081357;28;20192;-85
2022/10/17 04:26:43;;;;;;;3.07;2.70;;;;;;;13.29;92.37;96177.22;5103859;27;20184;-84
2022/10/17 04:29:08;;;;;;;5.33;3.27;;;;;;;13.37;91.75;96181.69;5103572;28;20707;-84
2022/10/17 04:31:33;;;;;;;5.30;3.37;;;;;;;13.37;91.07;96179.91;5098598;28;20211;-84
2022/10/17 04:33:59;;;;;;;5.00;2.97;;;;;;;13.45;91.28;96176.53;5100488;28;20188;-84
2022/10/17 04:36:24;;;;;;;4.60;2.97;;;;;;;13.57;90.25;96180.56;5106191;28;20196;-85
2022/10/17 04:38:49;;;;;;;4.73;3.17;;;;;;;13.62;89.46;96183.53;5081272;28;20211;-84
2022/10/17 04:41:16;;;;;;;4.40;2.80;;;;;;;13.77;88.21;96176.78;5103198;28;20760;-84
2022/10/17 04:43:42;;;;;;;4.67;3.10;;;;;;;13.94;87.44;96175.13;5099686;28;20346;-83
2022/10/17 04:46:10;;;;;;;4.57;2.90;;;;;;;14.04;86.80;96175.84;5097187;28;20585;-81
2022/10/17 04:48:35;;;;;;;4.97;3.23;;;;;;;14.13;86.31;96172.31;5075212;28;20223;-81
2022/10/17 04:51:03;;;;;;;3.50;2.85;;;;;;;14.22;85.47;96165.31;5099521;28;20188;-84
2022/10/17 04:53:33;;;;;;;5.37;2.93;;;;;;;14.31;84.86;96176.63;5100421;28;20208;-84
2022/10/17 04:55:58;;;;;;;5.03;3.17;;;;;;;14.36;84.07;96167.38;5083695;28;20191;-84
2022/10/17 04:58:24;;;;;;;5.07;2.90;;;;;;;14.44;83.45;96170.03;5106895;28;20212;-84
2022/10/17 05:00:49;;;;;;;4.22;2.70;;;;;;;14.47;82.69;96168.09;5084256;28;20191;-85
2022/10/17 05:03:14;;;;;;;4.68;3.10;;;;;;;14.48;83.32;96175.78;5084914;28;20552;-84
2022/10/17 05:05:40;;;;;;;4.35;3.20;;;;;;;14.41;83.82;96178.19;5081031;28;20236;-84
2022/10/17 05:08:07;;;;;;;5.03;2.90;;;;;;;14.35;84.23;96173.56;5087418;28;20192;-84
2022/10/17 05:10:37;;;;;;;5.73;3.03;;;;;;;14.29;84.65;96178.59;5083597;28;20749;-84
2022/10/17 05:13:02;;;;;;;5.72;3.10;;;;;;;14.24;85.21;96167.81;5087982;28;20217;-84
2022/10/17 05:15:27;;;;;;;4.18;2.85;;;;;;;14.08;86.06;96169.34;5084354;28;20251;-84
2022/10/17 05:17:56;;;;;;;6.25;3.05;;;;;;;14.04;86.99;96167.19;5092012;28;20183;-83
2022/10/17 05:20:22;;;;;;;4.07;2.80;;;;;;;13.97;87.30;96166.19;5087442;28;20195;-83
2022/10/17 05:22:47;;;;;;;5.90;2.70;;;;;;;13.96;87.17;96167.13;5106018;28;20222;-80
2022/10/17 05:25:12;;;;;;;3.23;2.97;;;;;;;13.94;87.15;96171.69;5085076;28;20187;-80
2022/10/17 05:27:38;;;;;;;4.60;3.13;;;;;;;13.86;87.48;96169.84;5099157;28;20195;-80
2022/10/17 05:30:04;;;;;;;4.73;3.10;;;;;;;13.89;87.12;96170.38;5079016;28;20220;-83
2022/10/17 05:32:29;;;;;;;6.23;3.10;;;;;;;13.95;86.98;96168.09;5105680;28;20223;-84
2022/10/17 05:34:54;;;;;;;2.67;2.47;;;;;;;13.94;86.64;96176.91;5079091;28;21040;-84
2022/10/17 05:37:20;;;;;;;4.37;3.07;;;;;;;13.93;86.03;96181.31;5085032;28;20552;-84
2022/10/17 05:39:45;;;;;;;5.67;3.00;;;;;;;13.96;85.96;96183.63;5085900;28;20204;-83
2022/10/17 05:42:10;;;;;;;7.00;2.83;;;;;;;14.03;85.51;96181.22;5084846;28;20184;-84
2022/10/17 05:44:38;;;;;;;4.63;2.87;;;;;;;14.08;84.91;96178.97;5088614;28;20195;-83
2022/10/17 05:47:03;;;;;;;4.63;2.80;;;;;;;14.12;84.69;96181.09;5094153;28;20184;-83
2022/10/17 05:49:28;;;;;;;3.30;2.80;;;;;;;14.12;84.54;96181.09;5113780;28;20753;-83
2022/10/17 05:51:54;;;;;;;3.07;2.77;;;;;;;14.13;84.11;96184.53;5093425;28;20216;-82
2022/10/17 05:54:19;;;;;;;4.33;2.73;;;;;;;14.14;84.37;96188.81;5087613;28;20647;-83
2022/10/17 05:56:44;;;;;;;3.60;2.70;;;;;;;14.13;84.20;96197.59;5084889;28;20296;-84
2022/10/17 05:59:10;;;;;;;8.27;2.90;;;;;;;14.05;84.33;96195.78;5083011;28;20206;-85
2022/10/17 06:01:36;;;;;;;4.63;2.72;;;;;;;14.00;84.69;96207.66;5098982;28;20189;-85
2022/10/17 06:04:01;;;;;;;5.82;2.97;;;;;;;13.82;85.51;96205.06;5101957;28;20207;-85
2022/10/17 06:06:26;;;;;;;5.63;2.87;;;;;;;13.77;86.23;96209.91;5096234;28;20226;-85
2022/10/17 06:08:52;;;;;;;4.53;3.10;;;;;;;13.73;86.26;96216.41;5100656;28;20284;-85
2022/10/17 06:11:17;;;;;;;4.63;2.60;;;;;;;13.59;86.61;96212.53;5082167;28;20192;-85
2022/10/17 06:13:42;;;;;;;4.33;2.80;;;;;;;13.56;87.33;96215.44;5083968;28;20183;-85
2022/10/17 06:16:08;;;;;;;7.07;2.80;;;;;;;13.56;87.83;96225.88;5099541;28;20597;-85
2022/10/17 06:18:34;;;;;;;4.10;2.93;;;;;;;13.58;87.89;96224.75;5082913;28;20226;-85
2022/10/17 06:21:05;;;;;;;4.70;2.67;;;;;;;13.67;87.48;96232.66;5083946;28;20177;-85
2022/10/17 06:23:31;;;;;;;5.03;2.70;;;;;;;13.68;87.79;96227.28;5106902;28;20185;-84
2022/10/17 06:26:01;;;;;;;6.37;3.03;;;;;;;13.66;88.19;96231.84;5089910;28;20188;-84
2022/10/17 06:28:27;;;;;;;6.73;3.00;;;;;;;13.68;88.55;96240.34;5105095;28;20231;-85
2022/10/17 06:30:52;;;;;;;4.32;2.95;;;;;;;13.73;88.05;96238.13;5093414;28;20192;-85
2022/10/17 06:33:17;;;;;;;5.70;3.00;;;;;;;13.72;88.24;96236.47;5105169;28;20579;-84
2022/10/17 06:35:43;;;;;;;8.07;3.20;;;;;;;13.74;88.56;96251.97;5089380;28;20181;-85
2022/10/17 06:38:08;;;;;;;5.83;2.67;;;;;;;13.81;88.58;96248.63;5106473;28;20189;-85
2022/10/17 06:40:34;;;;;;;6.50;4.87;;;;;;;13.84;88.75;96245.69;5091329;28;20188;-85
2022/10/17 06:42:59;;;;;;;7.73;4.80;;;;;;;13.90;88.69;96249.50;5094678;28;20278;-84
2022/10/17 06:45:25;;;;;;;5.93;4.77;;;;;;;13.98;88.49;96256.59;5090428;28;20189;-84
2022/10/17 06:47:50;;;;;;;5.63;4.30;;;;;;;14.03;88.82;96264.78;5090404;28;20184;-84
2022/10/17 06:50:15;;;;;;;5.73;3.07;;;;;;;14.16;88.01;96270.44;5084148;28;20325;-86
2022/10/17 06:52:43;;;;;;;3.37;2.83;;;;;;;14.34;87.16;96258.16;5090294;28;20343;-84
2022/10/17 06:55:08;;;;;;;12.03;2.83;;;;;;;14.47;85.82;96263.00;5097566;28;20184;-85
2022/10/17 06:57:33;;;;;;;3.50;2.60;;;;;;;14.65;84.88;96263.75;5085526;28;20192;-85
2022/10/17 06:59:59;;;;;;;6.87;2.40;;;;;;;14.82;83.45;96271.69;5109024;28;20204;-85
2022/10/17 07:02:24;;;;;;;5.33;2.40;;;;;;;15.01;82.00;96269.63;5103340;28;20176;-85
2022/10/17 07:04:49;;;;;;;9.23;2.53;;;;;;;15.20;81.04;96271.22;5092371;28;20524;-85
2022/10/17 07:07:15;;;;;;;5.00;2.72;;;;;;;15.40;80.17;96273.56;5093950;28;20177;-86
2022/10/17 07:09:40;;;;;;;5.43;2.80;;;;;;;15.59;78.87;96273.25;5095956;28;20567;-85
2022/10/17 07:12:07;;;;;;;7.82;2.85;;;;;;;15.71;78.19;96273.78;5090104;28;20203;-85
2022/10/17 07:14:33;;;;;;;3.30;3.00;;;;;;;15.86;78.35;96287.91;5084001;28;20193;-87
2022/10/17 07:16:58;;;;;;;4.30;2.60;;;;;;;16.03;77.91;96280.88;5102079;28;20959;-86
2022/10/17 07:19:24;;;;;;;2.65;2.40;;;;;;;16.15;78.74;96288.22;5095845;28;20235;-85
2022/10/17 07:21:49;;;;;;;2.78;2.28;;;;;;;16.32;77.75;96283.00;5105711;28;20189;-86
2022/10/17 07:24:15;;;;;;;5.05;2.50;;;;;;;16.41;77.06;96289.84;5086048;28;20203;-86
2022/10/17 07:26:40;;;;;;;4.45;2.42;;;;;;;16.54;76.42;96292.00;5091935;28;20211;-85
2022/10/17 07:29:06;;;;;;;3.83;2.50;;;;;;;16.57;76.29;96287.22;5107372;28;20544;-86
2022/10/17 07:31:32;;;;;;;3.65;2.92;;;;;;;16.63;77.18;96297.06;5088774;28;20200;-86
2022/10/17 07:34:09;;;;;;;3.00;2.65;;;;;;;16.64;76.25;96290.81;5082534;28;20186;-85
2022/10/17 07:36:52;;;;;;;5.88;2.63;;;;;;;16.62;76.39;96294.59;5088431;28;20179;-86
2022/10/17 07:39:22;;;;;;;4.05;2.75;;;;;;;16.61;76.17;96292.97;5092791;28;20215;-85
2022/10/17 07:41:58;;;;;;;6.47;2.70;;;;;;;16.63;76.37;96291.81;5097038;28;20191;-86
2022/10/17 07:44:41;;;;;;;3.45;2.80;;;;;;;16.82;75.36;96295.88;5080740;28;20271;-86
2022/10/17 07:47:09;;;;;;;4.28;3.10;;;;;;;16.88;74.76;96304.91;5088115;28;20184;-88
2022/10/17 07:50:01;;;;;;;7.05;2.72;;;;;;;16.95;75.05;96305.84;5105595;28;20196;-86
2022/10/17 07:52:31;;;;;;;7.47;3.05;;;;;;;16.95;74.93;96305.84;5095281;28;20257;-85
2022/10/17 07:54:57;;;;;;;9.10;2.80;;;;;;;16.94;75.67;96314.72;5104460;28;20183;-85
2022/10/17 07:57:24;;;;;;;4.53;2.20;;;;;;;17.06;74.62;96316.00;5119752;27;20207;-85
2022/10/17 08:00:00;;;;;;;3.22;2.47;;;;;;;17.17;73.71;96312.19;5087094;28;20212;-86
2022/10/17 08:02:36;;;;;;;4.68;2.63;;;;;;;17.05;73.00;96311.75;5097665;28;20179;-86
2022/10/17 08:05:08;;;;;;;4.05;2.22;;;;;;;17.28;73.05;96315.25;5110470;28;20556;-85
2022/10/17 08:07:41;;;;;;;3.08;2.17;;;;;;;17.34;72.75;96319.00;5100533;28;20184;-86
2022/10/17 08:10:37;;;;;;;;;;;;;;;;;;;;;
2022/10/17 08:13:30;;;;;;;7.30;2.47;;;;;;;17.35;73.03;96317.19;5107169;28;20222;-86
2022/10/17 08:16:36;;;;;;;4.53;2.50;;;;;;;17.58;72.79;96323.34;5092474;28;20192;-86
2022/10/17 08:22:00;;;;;;;5.00;2.55;;;;;;;17.87;72.56;96321.88;5104651;28;20277;-86
2022/10/17 08:24:31;;;;;;;3.60;2.72;;;;;;;17.96;71.94;96333.97;5105137;28;20180;-85
2022/10/17 08:27:10;;;;;;;2.80;2.55;;;;;;;18.05;71.85;96323.22;5080532;28;20187;-86
2022/10/17 08:29:38;;;;;;;3.45;2.10;;;;;;;18.11;71.65;96321.72;5102996;28;20196;-85
2022/10/17 08:32:17;;;;;;;2.78;2.30;;;;;;;18.17;72.05;96326.25;5078867;28;20588;-85
2022/10/17 08:34:49;;;;;;;2.60;2.13;;;;;;;18.29;71.88;96332.75;5098861;28;20247;-87
2022/10/17 08:37:17;;;;;;;4.03;2.70;;;;;;;18.33;71.74;96335.84;5088325;28;20190;-86
2022/10/17 08:39:56;;;;;;;5.00;2.40;;;;;;;18.46;71.67;96337.84;5084568;28;20201;-86
2022/10/17 08:42:54;;;;;;;4.13;2.30;;;;;;;18.55;70.46;96336.78;5103431;28;20179;-85
2022/10/17 08:45:26;;;;;;;2.40;2.10;;;;;;;18.70;69.94;96337.69;5093915;28;20225;-86
2022/10/17 08:48:06;;;;;;;;;;;;;;;;;;;;;
2022/10/17 08:50:46;;;;;;;2.17;2.00;;;;;;;18.96;68.74;96334.63;5102395;28;20202;-85
2022/10/17 08:53:30;;;;;;;9.38;2.10;;;;;;;19.10;67.68;96335.66;5088529;28;20819;-85
2022/10/17 08:55:56;;;;;;;2.83;2.22;;;;;;;19.24;66.97;96334.81;5084707;28;20199;-85
2022/10/17 08:58:39;;;;;;;2.63;2.25;;;;;;;19.36;67.85;96333.38;5084007;28;20276;-85
2022/10/17 09:01:35;;;;;;;3.70;1.90;;;;;;;19.49;67.29;96332.72;5082067;28;20192;-87
2022/10/17 09:04:39;;;;;;;2.67;2.20;;;;;;;19.36;67.32;96336.00;5092622;28;20212;-87
2022/10/17 09:07:21;;;;;;;2.50;2.30;;;;;;;19.47;66.08;96342.63;5102456;28;20257;-86
2022/10/17 09:10:10;;;;;;;3.95;2.30;;;;;;;19.50;65.94;96335.16;5104415;28;20227;-86
2022/10/17 09:12:57;;;;;;;5.35;2.20;;;;;;;19.57;66.72;96337.91;5093743;28;20192;-86
2022/10/17 09:15:41;;;;;;;5.43;2.35;;;;;;;19.66;66.37;96334.16;5090407;28;20192;-85
2022/10/17 09:18:14;;;;;;;3.15;2.03;;;;;;;19.67;66.25;96334.97;5117402;28;20659;-85
2022/10/17 09:20:50;;;;;;;6.35;3.05;;;;;;;19.75;66.85;96337.50;5095773;28;20183;-85
2022/10/17 09:23:19;;;;;;;4.00;2.20;;;;;;;19.87;65.72;96340.47;5104383;28;20172;-84
2022/10/17 09:25:51;;;;;;;3.03;2.08;;;;;;;20.03;65.84;96338.44;5085287;28;20581;-85
2022/10/17 09:28:35;;;;;;;6.15;2.25;;;;;;;20.08;65.50;96335.25;5083145;28;20295;-86
2022/10/17 09:31:25;;;;;;;3.72;2.30;;;;;;;19.94;65.87;96334.28;5091670;28;20195;-85
2022/10/17 09:33:53;;;;;;;5.53;2.20;;;;;;;20.23;65.88;96337.81;5107669;28;20200;-86
2022/10/17 09:36:21;;;;;;;4.55;2.05;;;;;;;20.32;64.79;96336.69;5109465;28;20187;-85
2022/10/17 09:38:55;;;;;;;3.50;2.15;;;;;;;20.41;66.48;96334.72;5102542;28;20210;-86
2022/10/17 09:41:23;;;;;;;6.28;2.10;;;;;;;20.63;65.88;96339.00;5108250;28;20195;-86
2022/10/17 09:43:55;;;;;;;3.33;2.30;;;;;;;20.69;64.58;96340.06;5108763;28;20183;-86
2022/10/17 09:46:33;;;;;;;4.50;2.88;;;;;;;20.80;64.79;96342.19;5103492;28;20194;-85
2022/10/17 09:49:13;;;;;;;5.43;2.13;;;;;;;20.89;63.24;96346.31;5113738;28;20191;-85
2022/10/17 09:51:39;;;;;;;4.10;1.90;;;;;;;21.01;62.19;96351.88;5084403;28;20180;-85
2022/10/17 09:54:14;;;;;;;7.18;2.30;;;;;;;21.15;62.54;96346.47;5107122;28;20636;-85
2022/10/17 09:57:12;;;;;;;4.63;2.17;;;;;;;21.29;63.05;96355.34;5103818;28;20182;-85
2022/10/17 09:59:45;;;;;;;6.47;2.38;;;;;;;21.40;62.57;96356.63;5026651;28;20220;-85
2022/10/17 10:02:22;;;;;;;3.65;2.13;;;;;;;21.44;63.71;96357.84;5052864;28;20193;-84
2022/10/17 10:05:00;;;;;;;5.72;2.30;;;;;;;21.64;62.12;96358.75;5035677;28;20180;-86
2022/10/17 10:07:28;;;;;;;3.45;2.40;;;;;;;21.63;62.31;96357.13;5048172;28;20274;-85
2022/10/17 10:09:54;;;;;;;6.75;2.20;;;;;;;21.70;61.64;96362.44;5045244;28;20217;-84
2022/10/17 10:12:27;;;;;;;4.20;2.08;;;;;;;21.76;61.95;96361.66;5023893;28;20213;-85
2022/10/17 10:14:53;;;;;;;2.80;2.35;;;;;;;21.76;59.85;96362.47;5035710;28;20189;-84
2022/10/17 10:17:40;;;;;;;6.47;2.00;;;;;;;21.85;57.37;96357.00;5044225;28;20189;-85
2022/10/17 10:20:28;;;;;;;6.68;2.03;;;;;;;21.83;57.52;96365.16;5028521;28;20630;-84
2022/10/17 10:23:11;;;;;;;2.95;2.15;;;;;;;21.87;58.96;96358.44;5059412;28;20200;-84
2022/10/17 10:25:37;;;;;;;6.65;2.60;;;;;;;21.81;57.01;96363.69;5034297;28;20255;-84
2022/10/17 10:28:09;;;;;;;3.58;2.05;;;;;;;21.74;57.57;96372.44;5049463;28;20720;-85
2022/10/17 10:30:34;;;;;;;3.72;2.03;;;;;;;21.72;58.10;96374.44;5035015;28;20185;-86
2022/10/17 10:33:00;;;;;;;2.42;1.63;;;;;;;21.81;57.06;96376.91;5052930;28;20205;-85
2022/10/17 10:35:32;;;;;;;6.47;2.13;;;;;;;21.82;60.60;96381.19;5076237;28;20196;-83
2022/10/17 10:37:58;;;;;;;4.90;2.20;;;;;;;21.64;63.22;96379.88;5095112;27;20316;-84
2022/10/17 10:40:48;;;;;;;3.38;2.05;;;;;;;21.53;63.60;96383.09;5090533;28;20275;-85
2022/10/17 10:43:41;;;;;;;3.92;2.55;;;;;;;21.60;61.79;96377.84;5096866;28;20965;-83
2022/10/17 10:46:22;;;;;;;4.60;2.10;;;;;;;21.53;62.18;96380.44;5103081;27;20188;-85
2022/10/17 10:48:49;;;;;;;4.70;2.10;;;;;;;21.52;61.98;96378.81;5099740;28;20222;-84
2022/10/17 10:51:16;;;;;;;3.22;2.25;;;;;;;21.59;61.19;96382.31;5107290;27;20247;-86
2022/10/17 10:54:03;;;;;;;6.75;2.30;;;;;;;21.81;61.47;96379.56;5090270;28;20223;-84
2022/10/17 10:56:46;;;;;;;5.47;2.30;;;;;;;22.01;61.48;96386.56;5094085;28;20207;-84
2022/10/17 10:59:14;;;;;;;5.38;2.38;;;;;;;22.15;58.92;96389.28;5101859;28;20240;-84
2022/10/17 11:01:54;;;;;;;4.20;2.22;;;;;;;22.01;57.79;96385.75;5099440;27;20243;-85
2022/10/17 11:04:32;;;;;;;5.68;2.20;;;;;;;22.05;57.24;96386.97;5084516;28;20275;-84
2022/10/17 11:07:27;;;;;;;3.72;2.33;;;;;;;22.01;57.45;96377.81;5098329;27;20186;-84
2022/10/17 11:10:26;;;;;;;2.28;1.88;;;;;;;21.96;56.68;96388.16;5107477;28;20207;-84
2022/10/17 11:13:16;;;;;;;6.10;2.60;;;;;;;22.06;55.96;96383.31;5105897;27;20204;-84
2022/10/17 11:15:59;;;;;;;4.43;2.28;;;;;;;21.80;57.09;96377.94;5085160;28;20173;-85
2022/10/17 11:18:45;;;;;;;5.30;2.38;;;;;;;22.21;55.82;96376.06;5107800;27;20206;-85
2022/10/17 11:21:45;;;;;;;3.22;2.45;;;;;;;22.24;56.62;96380.94;5100082;28;20677;-84
2022/10/17 11:24:23;;;;;;;5.22;2.05;;;;;;;22.27;55.33;96380.56;5106003;27;20270;-85
2022/10/17 11:26:54;;;;;;;4.90;2.40;;;;;;;22.24;55.96;96375.66;5093068;27;20193;-85
2022/10/17 11:29:21;;;;;;;4.43;2.58;;;;;;;22.26;56.92;96383.38;5103081;27;20342;-84
2022/10/17 11:31:49;;;;;;;3.00;2.30;;;;;;;22.22;56.70;96387.47;5091167;28;20305;-84
2022/10/17 11:34:19;;;;;;;4.95;2.30;;;;;;;22.31;57.04;96397.66;5082303;28;20668;-84
2022/10/17 11:36:48;;;;;;;3.70;2.10;;;;;;;22.25;58.25;96398.44;5085837;28;20184;-83
2022/10/17 11:39:26;;;;;;;4.25;2.47;;;;;;;21.98;59.42;96392.22;5101350;28;20785;-85
2022/10/17 11:41:55;;;;;;;8.30;2.40;;;;;;;22.01;58.81;96385.75;5100757;28;20314;-84
2022/10/17 11:44:25;;;;;;;3.65;2.22;;;;;;;22.25;57.69;96393.16;5089084;28;20184;-84
2022/10/17 11:46:54;;;;;;;2.42;2.22;;;;;;;22.49;57.46;96390.97;5079988;28;20262;-85
2022/10/17 11:49:23;;;;;;;3.25;1.88;;;;;;;22.40;55.98;96392.19;5099229;28;20300;-85
2022/10/17 11:52:04;;;;;;;8.10;2.10;;;;;;;22.28;56.78;96395.41;5083199;28;20264;-85
2022/10/17 11:54:37;;;;;;;4.57;2.10;;;;;;;22.40;55.25;96392.19;5099911;28;20181;-85
2022/10/17 11:57:25;;;;;;;3.38;2.15;;;;;;;22.43;56.72;96397.88;5098384;28;20188;-84
2022/10/17 12:00:20;;;;;;;4.22;2.20;;;;;;;22.33;55.69;96395.63;5096234;28;20254;-85
2022/10/17 12:02:54;;;;;;;8.32;2.03;;;;;;;22.44;53.98;96396.88;5106113;27;20183;-85